메인 페이지
METAR-TAF:

METAR-TAF

공항 :

노이바이 국제공항

하노이, 베트남

위도: 21-01N, 경도: 105-48E, 고도: 6m

현재 날씨관측

예보는 23분 전, 20:30시(UTC)에 발표되었습니다.
동북동4kt
온도 28°C
습도 94%
기압 1000 hPa
시정: 5000m
고도 800ft 상공 구름 조금
박무

METAR: VVNB 202030Z 07004KT 5000 BR FEW008 28/27 Q1000 NOSIG

시각: 03:53 (20:53 UTC)

예보

예보는 3 시간 53분 전, 17:00시(UTC)에 발표되었습니다.
예보 대상 시간: 20일 18시부터 21일 18시까지 (UTC)
동북동7kt
시정: 6000m
고도 1500ft 상공 구름 조금
확률 30% :
일시적
20일 22시부터 21일 01시까지 (UTC)
시정: 4000m
고도 1300ft 상공 구름 보통
고도 2700ft 상공 구름 조금, 적란운.
뇌우, 비
전환 중
21일 04시부터 21일 05시까지 (UTC)
남동12kt
일시적
21일 09시부터 21일 15시까지 (UTC)
여러 방향의 바람 15kt, 순간 최대 풍속 25kt
시정: 2500m
고도 800ft 상공 구름 많음
고도 2700ft 상공 구름 보통, 적란운.
고도 4000ft 상공 흐림
뇌우, 강한비

TAF: VVNB 201700Z 2018/2118 06007KT 6000 FEW015 PROB30 TEMPO 2022/2101 4000 TSRA SCT013 FEW027CB BECMG 2104/2105 13012KT TEMPO 2109/2115 VRB15G25KT 2500 +TSRA BKN008 SCT027CB OVC040

4,000개 이상의 공항 관측 자료 및 예보 (METAR 및 TAF 보고).

지도상에서 검색 가능한 기상관측소가 노란 점과 빨간 점으로 표시되어 있습니다.

기상관측소 명을 보려면 표시 위로 마우스를 이동하세요.

날씨 관측과 예보를 보려면 클릭하세요.

지도 변경 : 확대하려면 엑스 표시가 있는 녹색 버튼, 축소하려면 빼기 표시가 있는 녹색 버튼, 다음 페이지의 지도를 보려면 녹색 화살표를 클릭하세요.


METAR-TAF: